createdAt,value
2022-10-11T00:00:02.068Z,11.28
2022-10-11T00:02:28.481Z,11.32
2022-10-11T00:04:54.957Z,11.18
2022-10-11T00:07:21.636Z,11.04
2022-10-11T00:09:48.062Z,10.98
2022-10-11T00:12:14.451Z,10.88
2022-10-11T00:14:40.901Z,10.85
2022-10-11T00:17:10.198Z,10.80
2022-10-11T00:19:36.647Z,10.81
2022-10-11T00:22:03.010Z,10.83
2022-10-11T00:24:29.433Z,10.85
2022-10-11T00:26:55.807Z,10.93
2022-10-11T00:29:22.488Z,11.07
2022-10-11T00:31:48.860Z,11.10
2022-10-11T00:34:18.036Z,11.10
2022-10-11T00:36:45.218Z,11.11
2022-10-11T00:39:14.302Z,11.12
2022-10-11T00:41:41.186Z,11.11
2022-10-11T00:44:17.182Z,11.13
2022-10-11T00:46:45.944Z,11.16
2022-10-11T00:49:15.279Z,11.16
2022-10-11T00:51:41.620Z,11.21
2022-10-11T00:54:11.279Z,11.24
2022-10-11T00:56:38.842Z,11.29
2022-10-11T00:59:09.676Z,11.38
2022-10-11T01:01:36.476Z,11.41
2022-10-11T01:04:02.990Z,11.41
2022-10-11T01:06:29.633Z,11.46
2022-10-11T01:08:56.274Z,11.50
2022-10-11T01:11:23.996Z,11.55
2022-10-11T01:13:56.370Z,11.49
2022-10-11T01:16:34.273Z,11.55
2022-10-11T01:19:00.652Z,11.58
2022-10-11T01:21:35.335Z,11.64
2022-10-11T01:24:08.736Z,11.69
2022-10-11T01:26:47.550Z,11.76
2022-10-11T01:29:32.678Z,11.76
2022-10-11T01:32:05.458Z,11.78
2022-10-11T01:34:41.171Z,11.85
2022-10-11T01:37:15.083Z,11.87
2022-10-11T01:39:54.678Z,11.85
2022-10-11T01:42:21.667Z,11.83
2022-10-11T01:44:49.891Z,11.84
2022-10-11T01:47:23.201Z,11.82
2022-10-11T01:49:53.847Z,11.81
2022-10-11T01:52:21.457Z,11.79
2022-10-11T01:55:09.745Z,11.84
2022-10-11T01:57:39.644Z,11.84
2022-10-11T02:00:26.345Z,11.81
2022-10-11T02:02:52.793Z,11.80
2022-10-11T02:05:24.612Z,11.78
2022-10-11T02:08:07.870Z,11.71
2022-10-11T02:10:37.861Z,11.74
2022-10-11T02:13:09.339Z,11.81
2022-10-11T02:15:38.461Z,11.78
2022-10-11T02:18:08.397Z,11.77
2022-10-11T02:20:37.594Z,11.74
2022-10-11T02:23:08.229Z,11.75
2022-10-11T02:25:35.971Z,11.77
2022-10-11T02:28:04.445Z,11.78
2022-10-11T02:30:32.045Z,11.76
2022-10-11T02:33:00.266Z,11.76
2022-10-11T02:35:29.678Z,11.76
2022-10-11T02:38:05.785Z,11.79
2022-10-11T02:40:33.338Z,11.81
2022-10-11T02:43:03.569Z,11.73
2022-10-11T02:45:32.866Z,11.65
2022-10-11T02:47:59.787Z,11.66
2022-10-11T02:50:26.667Z,11.66
2022-10-11T02:52:53.205Z,11.57
2022-10-11T02:55:19.698Z,11.57
2022-10-11T02:57:46.382Z,11.65
2022-10-11T03:00:14.439Z,11.69
2022-10-11T03:02:41.029Z,11.59
2022-10-11T03:05:07.680Z,11.59
2022-10-11T03:07:34.102Z,11.55
2022-10-11T03:10:00.575Z,11.52
2022-10-11T03:12:26.969Z,11.48
2022-10-11T03:14:53.417Z,11.51
2022-10-11T03:17:35.703Z,11.43
2022-10-11T03:20:02.912Z,11.44
2022-10-11T03:22:29.296Z,11.40
2022-10-11T03:24:58.548Z,11.31
2022-10-11T03:27:29.128Z,11.26
2022-10-11T03:29:56.164Z,11.20
2022-10-11T03:32:22.603Z,11.16
2022-10-11T03:34:49.018Z,11.15
2022-10-11T03:37:15.550Z,11.17
2022-10-11T03:39:42.031Z,11.04
2022-10-11T03:42:08.470Z,10.98
2022-10-11T03:44:34.869Z,10.93
2022-10-11T03:47:01.572Z,10.80
2022-10-11T03:49:27.950Z,10.80
2022-10-11T03:51:54.495Z,10.71
2022-10-11T03:54:21.061Z,10.70
2022-10-11T03:56:47.496Z,10.70
2022-10-11T03:59:13.918Z,10.70
2022-10-11T04:01:40.672Z,10.69
2022-10-11T04:04:07.177Z,10.69
2022-10-11T04:06:33.699Z,10.62
2022-10-11T04:09:00.144Z,10.62
2022-10-11T04:11:27.030Z,10.55
2022-10-11T04:13:53.550Z,10.46
2022-10-11T04:16:20.009Z,10.42
2022-10-11T04:18:46.438Z,10.31
2022-10-11T04:21:13.115Z,10.28
2022-10-11T04:23:39.527Z,10.24
2022-10-11T04:26:07.432Z,10.35
2022-10-11T04:28:35.453Z,10.21
2022-10-11T04:31:04.252Z,10.16
2022-10-11T04:33:31.041Z,9.95
2022-10-11T04:35:57.536Z,9.90
2022-10-11T04:38:25.461Z,9.77
2022-10-11T04:40:51.895Z,9.74
2022-10-11T04:43:19.057Z,9.64
2022-10-11T04:45:45.490Z,9.47
2022-10-11T04:48:11.905Z,9.36
2022-10-11T04:50:38.417Z,9.26
2022-10-11T04:53:04.920Z,9.20
2022-10-11T04:55:31.295Z,9.07
2022-10-11T04:57:57.753Z,8.98
2022-10-11T05:00:24.155Z,8.83
2022-10-11T05:02:52.228Z,8.77
2022-10-11T05:05:20.466Z,8.67
2022-10-11T05:07:46.896Z,8.56
2022-10-11T05:10:13.312Z,8.48
2022-10-11T05:12:39.811Z,8.40
2022-10-11T05:15:06.633Z,8.30
2022-10-11T05:17:33.155Z,8.22
2022-10-11T05:19:59.593Z,8.15
2022-10-11T05:22:26.064Z,8.07
2022-10-11T05:24:52.504Z,7.99
2022-10-11T05:27:18.953Z,7.92
2022-10-11T05:29:45.837Z,7.89
2022-10-11T05:32:12.270Z,7.78
2022-10-11T05:34:38.659Z,7.68
2022-10-11T05:37:05.108Z,7.61
2022-10-11T05:39:32.343Z,7.54
2022-10-11T05:41:58.810Z,7.50
2022-10-11T05:44:25.296Z,7.45
2022-10-11T05:46:51.749Z,7.39
2022-10-11T05:49:18.213Z,7.34
2022-10-11T05:51:44.670Z,7.30
2022-10-11T05:54:11.110Z,7.29
2022-10-11T05:56:37.547Z,7.26
2022-10-11T05:59:04.459Z,7.21
2022-10-11T06:01:30.995Z,7.21
2022-10-11T06:03:57.491Z,7.20
2022-10-11T06:06:24.073Z,7.18
2022-10-11T06:08:50.650Z,7.22
2022-10-11T06:11:23.489Z,7.21
2022-10-11T06:13:50.114Z,7.24
2022-10-11T06:16:16.544Z,7.25
2022-10-11T06:18:42.964Z,7.27
2022-10-11T06:21:09.469Z,7.29
2022-10-11T06:23:35.958Z,7.32
2022-10-11T06:26:08.094Z,7.33
2022-10-11T06:28:35.689Z,7.36
2022-10-11T06:31:03.854Z,7.38
2022-10-11T06:33:30.258Z,7.43
2022-10-11T06:36:00.586Z,7.49
2022-10-11T06:38:27.184Z,7.52
2022-10-11T06:40:53.921Z,7.59
2022-10-11T06:43:20.789Z,7.70
2022-10-11T06:45:47.388Z,7.75
2022-10-11T06:48:13.847Z,7.89
2022-10-11T06:50:59.150Z,8.05
2022-10-11T06:53:26.809Z,8.22
2022-10-11T06:55:53.306Z,8.38
2022-10-11T06:58:19.735Z,8.55
2022-10-11T07:00:46.249Z,8.75
2022-10-11T07:03:12.722Z,8.82
2022-10-11T07:05:39.129Z,8.94
2022-10-11T07:08:05.601Z,9.03
2022-10-11T07:10:31.961Z,9.07
2022-10-11T07:12:58.982Z,9.13
2022-10-11T07:15:25.424Z,9.23
2022-10-11T07:17:51.778Z,9.29
2022-10-11T07:20:18.255Z,9.28
2022-10-11T07:22:44.629Z,9.32
2022-10-11T07:25:11.499Z,9.37
2022-10-11T07:27:38.067Z,9.45
2022-10-11T07:30:04.751Z,9.50
2022-10-11T07:32:31.140Z,9.60
2022-10-11T07:34:57.691Z,9.63
2022-10-11T07:37:24.086Z,9.67
2022-10-11T07:39:50.537Z,9.73
2022-10-11T07:42:16.980Z,9.82
2022-10-11T07:44:43.425Z,9.85
2022-10-11T07:47:11.385Z,9.92
2022-10-11T07:49:38.116Z,9.98
2022-10-11T07:52:04.708Z,10.05
2022-10-11T07:54:31.112Z,10.08
2022-10-11T07:56:57.466Z,10.14
2022-10-11T07:59:23.957Z,10.17
2022-10-11T08:01:50.510Z,10.24
2022-10-11T08:04:16.997Z,10.26
2022-10-11T08:06:43.501Z,10.31
2022-10-11T08:09:29.411Z,10.41
2022-10-11T08:11:56.091Z,10.48
2022-10-11T08:14:22.562Z,10.57
2022-10-11T08:16:49.064Z,10.64
2022-10-11T08:19:16.299Z,10.69
2022-10-11T08:21:42.710Z,10.77
2022-10-11T08:24:09.163Z,10.80
2022-10-11T08:26:35.634Z,10.89
2022-10-11T08:29:05.399Z,10.94
2022-10-11T08:31:32.575Z,10.92
2022-10-11T08:33:59.065Z,11.03
2022-10-11T08:36:25.562Z,11.16
2022-10-11T08:38:52.132Z,11.26
2022-10-11T08:41:27.860Z,11.28
2022-10-11T08:43:57.956Z,11.33
2022-10-11T08:46:27.648Z,11.51
2022-10-11T08:48:54.408Z,11.54
2022-10-11T08:51:24.542Z,11.67
2022-10-11T08:53:50.991Z,11.87
2022-10-11T08:56:17.539Z,12.11
2022-10-11T08:59:04.236Z,12.46
2022-10-11T09:01:31.203Z,12.68
2022-10-11T09:04:00.243Z,12.91
2022-10-11T09:06:29.685Z,13.10
2022-10-11T09:08:56.636Z,13.15
2022-10-11T09:11:42.551Z,13.13
2022-10-11T09:14:25.718Z,13.04
2022-10-11T09:17:12.079Z,12.89
2022-10-11T09:19:38.524Z,12.85
2022-10-11T09:22:04.873Z,12.79
2022-10-11T09:24:34.352Z,12.82
2022-10-11T09:27:00.928Z,12.83
2022-10-11T09:29:46.150Z,12.71
2022-10-11T09:32:15.029Z,12.67
2022-10-11T09:34:41.848Z,12.63
2022-10-11T09:37:14.318Z,12.62
2022-10-11T09:39:45.646Z,12.84
2022-10-11T09:42:12.143Z,12.93
2022-10-11T09:44:47.049Z,12.91
2022-10-11T09:47:20.563Z,12.86
2022-10-11T09:49:52.813Z,13.00
2022-10-11T09:52:20.482Z,13.05
2022-10-11T09:54:48.697Z,13.20
2022-10-11T09:57:27.513Z,13.32
2022-10-11T10:00:03.584Z,13.47
2022-10-11T10:02:30.435Z,13.55
2022-10-11T10:04:58.621Z,13.60
2022-10-11T10:07:25.536Z,13.55
2022-10-11T10:09:52.966Z,13.40
2022-10-11T10:12:37.416Z,13.47
2022-10-11T10:15:06.945Z,13.60
2022-10-11T10:17:33.975Z,13.51
2022-10-11T10:20:00.732Z,13.45
2022-10-11T10:22:32.182Z,13.32
2022-10-11T10:25:01.562Z,13.39
2022-10-11T10:27:29.887Z,13.56
2022-10-11T10:32:43.849Z,13.66
2022-10-11T10:35:24.406Z,13.54
2022-10-11T10:38:10.349Z,13.43
2022-10-11T10:40:45.299Z,13.58
2022-10-11T10:43:16.318Z,13.76
2022-10-11T10:45:55.602Z,13.92
2022-10-11T10:48:53.792Z,14.02
2022-10-11T10:51:25.337Z,14.32
2022-10-11T10:54:01.580Z,14.32
2022-10-11T10:56:32.601Z,13.99
2022-10-11T10:58:59.100Z,13.62
2022-10-11T11:01:33.037Z,13.53
2022-10-11T11:04:02.505Z,13.38
2022-10-11T11:06:35.634Z,13.48
2022-10-11T11:09:03.039Z,13.59
2022-10-11T11:11:36.035Z,13.84
2022-10-11T11:14:21.829Z,13.99
2022-10-11T11:16:58.650Z,14.24
2022-10-11T11:19:28.182Z,14.57
2022-10-11T11:22:00.025Z,14.81
2022-10-11T11:24:44.891Z,14.87
2022-10-11T11:27:11.444Z,14.73
2022-10-11T11:29:41.369Z,14.58
2022-10-11T11:32:11.792Z,14.62
2022-10-11T11:34:41.436Z,14.71
2022-10-11T11:37:28.859Z,14.55
2022-10-11T11:39:59.565Z,14.43
2022-10-11T11:42:29.059Z,14.13
2022-10-11T11:44:56.166Z,13.92
2022-10-11T11:47:23.569Z,13.77
2022-10-11T11:49:55.270Z,13.64
2022-10-11T11:52:26.624Z,13.63
2022-10-11T11:55:05.991Z,13.53
2022-10-11T11:57:32.449Z,13.59
2022-10-11T12:00:04.039Z,13.60
2022-10-11T12:02:48.871Z,13.61
2022-10-11T12:05:18.625Z,13.90
2022-10-11T12:08:06.007Z,14.10
2022-10-11T12:10:50.886Z,14.38
2022-10-11T12:13:21.144Z,14.54
2022-10-11T12:16:01.648Z,14.62
2022-10-11T12:18:29.276Z,14.64
2022-10-11T12:21:17.201Z,14.92
2022-10-11T12:23:49.962Z,15.17
2022-10-11T12:26:28.622Z,15.26
2022-10-11T12:29:14.068Z,15.35
2022-10-11T12:31:46.125Z,15.41
2022-10-11T12:34:17.681Z,15.45
2022-10-11T12:36:45.237Z,15.32
2022-10-11T12:39:20.594Z,14.98
2022-10-11T12:41:47.156Z,14.81
2022-10-11T12:44:19.840Z,14.66
2022-10-11T12:46:55.281Z,14.52
2022-10-11T12:49:24.657Z,14.51
2022-10-11T12:51:59.795Z,14.29
2022-10-11T12:54:36.979Z,14.24
2022-10-11T12:57:12.345Z,14.16
2022-10-11T12:59:44.374Z,14.20
2022-10-11T13:02:37.149Z,14.06
2022-10-11T13:05:08.121Z,13.85
2022-10-11T13:07:35.313Z,13.83
2022-10-11T13:10:05.428Z,13.79
2022-10-11T13:12:36.579Z,13.71
2022-10-11T13:15:08.633Z,13.53
2022-10-11T13:17:38.669Z,13.59
2022-10-11T13:20:17.467Z,13.51
2022-10-11T13:22:47.282Z,13.55
2022-10-11T13:25:22.411Z,13.70
2022-10-11T13:27:50.078Z,13.67
2022-10-11T13:30:18.636Z,13.80
2022-10-11T13:32:45.393Z,14.04
2022-10-11T13:35:19.833Z,14.32
2022-10-11T13:37:49.629Z,14.56
2022-10-11T13:40:17.621Z,14.76
2022-10-11T13:42:44.508Z,14.76
2022-10-11T13:45:15.675Z,14.74
2022-10-11T13:47:42.723Z,14.82
2022-10-11T13:50:10.837Z,14.82
2022-10-11T13:52:47.522Z,14.75
2022-10-11T13:55:24.921Z,14.93
2022-10-11T13:57:53.986Z,14.88
2022-10-11T14:00:40.623Z,14.97
2022-10-11T14:03:13.077Z,15.07
2022-10-11T14:05:41.511Z,15.09
2022-10-11T14:08:20.663Z,15.02
2022-10-11T14:10:47.746Z,14.98
2022-10-11T14:13:33.577Z,15.05
2022-10-11T14:16:00.483Z,15.10
2022-10-11T14:18:36.739Z,15.01
2022-10-11T14:21:21.776Z,15.12
2022-10-11T14:23:51.340Z,15.13
2022-10-11T14:26:19.027Z,15.04
2022-10-11T14:28:46.001Z,15.05
2022-10-11T14:31:12.426Z,14.94
2022-10-11T14:33:39.090Z,14.89
2022-10-11T14:36:06.060Z,14.95
2022-10-11T14:38:32.624Z,14.94
2022-10-11T14:40:59.012Z,14.82
2022-10-11T14:43:25.416Z,14.82
2022-10-11T14:45:51.835Z,14.65
2022-10-11T14:48:36.669Z,14.51
2022-10-11T14:51:05.818Z,14.35
2022-10-11T14:53:32.209Z,14.18
2022-10-11T14:55:58.584Z,14.04
2022-10-11T14:58:24.953Z,13.94
2022-10-11T15:00:51.296Z,13.88
2022-10-11T15:03:17.680Z,13.95
2022-10-11T15:05:44.062Z,13.83
2022-10-11T15:08:11.555Z,13.71
2022-10-11T15:10:40.155Z,13.62
2022-10-11T15:13:07.212Z,13.50
2022-10-11T15:15:37.949Z,13.38
2022-10-11T15:18:05.392Z,13.24
2022-10-11T15:20:39.608Z,13.13
2022-10-11T15:23:07.751Z,13.03
2022-10-11T15:25:34.691Z,12.91
2022-10-11T15:28:01.119Z,12.83
2022-10-11T15:30:34.830Z,12.77
2022-10-11T15:33:04.317Z,12.73
2022-10-11T15:35:30.804Z,12.70
2022-10-11T15:37:58.682Z,12.65
2022-10-11T15:40:27.300Z,12.62
2022-10-11T15:42:54.351Z,12.53
2022-10-11T15:45:21.594Z,12.46
2022-10-11T15:47:48.557Z,12.36
2022-10-11T15:50:33.674Z,12.29
2022-10-11T15:53:07.769Z,12.18
2022-10-11T15:55:35.747Z,12.08
2022-10-11T15:58:02.209Z,11.98
2022-10-11T16:00:28.619Z,11.86
2022-10-11T16:02:55.293Z,11.77
2022-10-11T16:05:22.389Z,11.62
2022-10-11T16:07:48.830Z,11.53
2022-10-11T16:10:15.363Z,11.39
2022-10-11T16:12:41.797Z,11.26
2022-10-11T16:15:08.609Z,11.16
2022-10-11T16:17:35.181Z,11.04
2022-10-11T16:20:01.847Z,10.92
2022-10-11T16:22:29.280Z,10.81
2022-10-11T16:24:55.739Z,10.70
2022-10-11T16:27:22.166Z,10.60
2022-10-11T16:29:48.564Z,10.47
2022-10-11T16:32:14.937Z,10.37
2022-10-11T16:34:41.313Z,10.27
2022-10-11T16:37:07.653Z,10.17
2022-10-11T16:39:34.252Z,10.06
2022-10-11T16:42:00.713Z,9.97
2022-10-11T16:44:27.868Z,9.88
2022-10-11T16:46:55.033Z,9.79
2022-10-11T16:49:23.215Z,9.68
2022-10-11T16:51:53.701Z,9.58
2022-10-11T16:54:21.206Z,9.49
2022-10-11T16:56:48.797Z,9.40
2022-10-11T16:59:15.184Z,9.34
2022-10-11T17:01:41.923Z,9.26
2022-10-11T17:04:09.234Z,9.16
2022-10-11T17:06:35.871Z,9.07
2022-10-11T17:09:02.261Z,8.99
2022-10-11T17:11:28.660Z,8.87
2022-10-11T17:13:55.044Z,8.78
2022-10-11T17:16:22.071Z,8.68
2022-10-11T17:18:49.188Z,8.59
2022-10-11T17:21:17.389Z,8.53
2022-10-11T17:23:43.956Z,8.47
2022-10-11T17:26:12.647Z,8.39
2022-10-11T17:28:39.196Z,8.34
2022-10-11T17:31:05.935Z,8.25
2022-10-11T17:33:32.553Z,8.17
2022-10-11T17:36:00.164Z,8.13
2022-10-11T17:38:27.471Z,8.04
2022-10-11T17:41:00.165Z,7.95
2022-10-11T17:43:26.541Z,7.84
2022-10-11T17:45:59.671Z,7.72
2022-10-11T17:48:26.982Z,7.68
2022-10-11T17:50:53.352Z,7.62
2022-10-11T17:53:20.026Z,7.54
2022-10-11T17:55:47.723Z,7.49
2022-10-11T17:58:14.211Z,7.46
2022-10-11T18:00:43.710Z,7.41
2022-10-11T18:03:10.218Z,7.43
2022-10-11T18:05:40.965Z,7.38
2022-10-11T18:08:08.037Z,7.36
2022-10-11T18:10:37.835Z,7.32
2022-10-11T18:13:06.807Z,7.23
2022-10-11T18:15:33.650Z,7.15
2022-10-11T18:18:00.103Z,7.09
2022-10-11T18:20:26.527Z,7.01
2022-10-11T18:22:55.812Z,6.94
2022-10-11T18:25:22.247Z,6.88
2022-10-11T18:27:48.648Z,6.84
2022-10-11T18:30:15.129Z,6.76
2022-10-11T18:32:41.770Z,6.73
2022-10-11T18:35:08.531Z,6.71
2022-10-11T18:37:34.866Z,6.66
2022-10-11T18:40:04.738Z,6.60
2022-10-11T18:42:31.113Z,6.52
2022-10-11T18:45:00.919Z,6.49
2022-10-11T18:47:27.305Z,6.45
2022-10-11T18:49:53.725Z,6.41
2022-10-11T18:52:21.480Z,6.38
2022-10-11T18:54:48.091Z,6.35
2022-10-11T18:57:14.558Z,6.23
2022-10-11T18:59:40.894Z,6.15
2022-10-11T19:02:09.710Z,6.13
2022-10-11T19:04:36.162Z,6.06
2022-10-11T19:07:04.288Z,5.94
2022-10-11T19:09:30.932Z,5.93
2022-10-11T19:11:57.693Z,5.86
2022-10-11T19:14:25.890Z,5.83
2022-10-11T19:16:52.928Z,5.78
2022-10-11T19:19:20.523Z,5.75
2022-10-11T19:21:48.658Z,5.72
2022-10-11T19:24:15.979Z,5.68
2022-10-11T19:26:42.622Z,5.54
2022-10-11T19:29:10.390Z,5.31
2022-10-11T19:31:40.655Z,5.31
2022-10-11T19:34:07.251Z,5.29
2022-10-11T19:36:36.691Z,5.27
2022-10-11T19:39:03.891Z,5.26
2022-10-11T19:41:30.317Z,5.24
2022-10-11T19:43:58.290Z,5.24
2022-10-11T19:46:44.855Z,5.25
2022-10-11T19:49:15.787Z,5.24
2022-10-11T19:51:42.139Z,5.21
2022-10-11T19:54:11.465Z,5.20
2022-10-11T19:56:39.777Z,5.15
2022-10-11T19:59:09.084Z,5.14
2022-10-11T20:01:36.120Z,5.10
2022-10-11T20:04:04.299Z,5.09
2022-10-11T20:06:35.833Z,5.07
2022-10-11T20:09:28.040Z,5.06
2022-10-11T20:11:50.836Z,5.02
2022-10-11T20:14:17.469Z,5.00
2022-10-11T20:16:43.802Z,4.99
2022-10-11T20:19:10.243Z,4.96
2022-10-11T20:21:36.753Z,4.95
2022-10-11T20:24:04.111Z,4.94
2022-10-11T20:26:31.501Z,4.94
2022-10-11T20:28:58.042Z,4.94
2022-10-11T20:31:28.620Z,4.92
2022-10-11T20:33:56.884Z,4.89
2022-10-11T20:36:24.850Z,4.85
2022-10-11T20:38:52.411Z,4.82
2022-10-11T20:41:23.316Z,4.80
2022-10-11T20:43:51.250Z,4.79
2022-10-11T20:46:19.223Z,4.73
2022-10-11T20:48:55.487Z,4.72
2022-10-11T20:51:24.030Z,4.71
2022-10-11T20:53:50.519Z,4.71
2022-10-11T20:56:18.342Z,4.67
2022-10-11T20:58:45.170Z,4.65
2022-10-11T21:01:16.060Z,4.65
2022-10-11T21:03:43.096Z,4.62
2022-10-11T21:06:09.596Z,4.61
2022-10-11T21:08:36.599Z,4.59
2022-10-11T21:11:03.840Z,4.55
2022-10-11T21:13:30.687Z,4.52
2022-10-11T21:16:03.654Z,4.51
2022-10-11T21:18:29.997Z,4.51
2022-10-11T21:20:56.326Z,4.49
2022-10-11T21:23:22.691Z,4.44
2022-10-11T21:25:49.254Z,4.42
2022-10-11T21:28:15.765Z,4.40
2022-10-11T21:30:42.160Z,4.36
2022-10-11T21:33:08.567Z,4.34
2022-10-11T21:35:38.620Z,4.31
2022-10-11T21:38:04.979Z,4.30
2022-10-11T21:40:31.333Z,4.30
2022-10-11T21:42:57.846Z,4.29
2022-10-11T21:45:24.181Z,4.29
2022-10-11T21:47:50.618Z,4.26
2022-10-11T21:50:17.006Z,4.22
2022-10-11T21:52:43.352Z,4.19
2022-10-11T21:55:10.674Z,4.19
2022-10-11T21:57:37.013Z,4.17
2022-10-11T22:00:04.630Z,4.18
2022-10-11T22:02:31.045Z,4.15
2022-10-11T22:04:57.525Z,4.14
2022-10-11T22:07:23.944Z,4.12
2022-10-11T22:09:50.344Z,4.07
2022-10-11T22:12:16.813Z,4.05
2022-10-11T22:14:43.202Z,4.03
2022-10-11T22:17:09.609Z,4.01
2022-10-11T22:19:35.964Z,4.01
2022-10-11T22:22:02.371Z,4.01
2022-10-11T22:24:29.121Z,4.00
2022-10-11T22:26:55.603Z,3.99
2022-10-11T22:29:22.003Z,3.98
2022-10-11T22:31:48.437Z,3.94
2022-10-11T22:34:14.826Z,3.88
2022-10-11T22:36:41.299Z,3.77
2022-10-11T22:39:07.872Z,3.74
2022-10-11T22:41:35.710Z,3.70
2022-10-11T22:44:02.241Z,3.68
2022-10-11T22:46:28.751Z,3.67
2022-10-11T22:48:55.297Z,3.63
2022-10-11T22:51:21.647Z,3.60
2022-10-11T22:53:48.546Z,3.57
2022-10-11T22:56:15.338Z,3.55
2022-10-11T22:58:41.680Z,3.55
2022-10-11T23:01:12.336Z,3.54
2022-10-11T23:03:38.852Z,3.51
2022-10-11T23:06:05.449Z,3.47
2022-10-11T23:08:31.790Z,3.43
2022-10-11T23:11:02.083Z,3.40
2022-10-11T23:13:28.438Z,3.34
2022-10-11T23:15:55.253Z,3.28
2022-10-11T23:18:21.588Z,3.22
2022-10-11T23:20:47.971Z,3.21
2022-10-11T23:23:14.335Z,3.20
2022-10-11T23:25:40.659Z,3.16
2022-10-11T23:28:07.032Z,3.12
2022-10-11T23:30:33.424Z,3.09
2022-10-11T23:32:59.772Z,3.08
2022-10-11T23:35:26.105Z,3.07
2022-10-11T23:37:53.518Z,3.07
2022-10-11T23:40:19.853Z,3.08
2022-10-11T23:42:46.250Z,3.07
2022-10-11T23:45:12.708Z,3.06
2022-10-11T23:47:39.597Z,3.05
2022-10-11T23:50:06.654Z,3.05
2022-10-11T23:52:33.031Z,3.05
2022-10-11T23:54:59.410Z,3.02
2022-10-11T23:57:25.818Z,2.99
2022-10-11T23:59:52.163Z,2.97
